< < Back
Terminal Aerodrome Forecast


Current Version              Previous Versions:   1  2  3  4  5  6  7  8  9  

Terminal Aerodrome Forecast

149
FTUS42 KCAE 051442 AAA
TAFCAE
TAF AMD
KCAE 051442Z 0515/0612 35012G20KT P6SM SKC
     FM052100 36010KT P6SM SKC
     FM052300 02005KT P6SM SKC=



Latest METAR

993
SAUS80 KWBC 052200
MTRCAE
METAR KCAE 052156Z 01007KT 10SM CLR 11/M10 A3032 RMK AO2 SLP268
T01111100


USA.gov is the U.S. government's official web portal to all federal, state and local government web resources and services.